sensor_id;sensor_type;location;lat;lon;timestamp;P1;durP1;ratioP1;P2;durP2;ratioP2
3341;SDS011;1684;50.748;6.154;2022-11-20T00:01:05;26.70;;;14.20;;
3341;SDS011;1684;50.748;6.154;2022-11-20T00:03:33;28.57;;;15.10;;
3341;SDS011;1684;50.748;6.154;2022-11-20T00:06:02;23.70;;;11.30;;
3341;SDS011;1684;50.748;6.154;2022-11-20T00:08:30;25.63;;;12.97;;
3341;SDS011;1684;50.748;6.154;2022-11-20T00:11:03;27.30;;;13.67;;
3341;SDS011;1684;50.748;6.154;2022-11-20T00:13:31;27.93;;;14.30;;
3341;SDS011;1684;50.748;6.154;2022-11-20T00:16:00;29.37;;;16.70;;
3341;SDS011;1684;50.748;6.154;2022-11-20T00:18:30;26.30;;;15.30;;
3341;SDS011;1684;50.748;6.154;2022-11-20T00:21:00;22.13;;;13.00;;
3341;SDS011;1684;50.748;6.154;2022-11-20T00:23:29;30.07;;;15.70;;
3341;SDS011;1684;50.748;6.154;2022-11-20T00:26:00;28.97;;;15.07;;
3341;SDS011;1684;50.748;6.154;2022-11-20T00:28:29;30.80;;;16.37;;
3341;SDS011;1684;50.748;6.154;2022-11-20T00:31:01;28.03;;;15.07;;
3341;SDS011;1684;50.748;6.154;2022-11-20T00:33:31;27.43;;;13.10;;
3341;SDS011;1684;50.748;6.154;2022-11-20T00:36:00;25.70;;;13.13;;
3341;SDS011;1684;50.748;6.154;2022-11-20T00:38:30;27.70;;;14.93;;
3341;SDS011;1684;50.748;6.154;2022-11-20T00:40:58;33.97;;;17.00;;
3341;SDS011;1684;50.748;6.154;2022-11-20T00:43:27;31.57;;;16.50;;
3341;SDS011;1684;50.748;6.154;2022-11-20T00:45:56;33.57;;;16.27;;
3341;SDS011;1684;50.748;6.154;2022-11-20T00:48:28;40.07;;;18.77;;
3341;SDS011;1684;50.748;6.154;2022-11-20T00:50:57;36.77;;;17.50;;
3341;SDS011;1684;50.748;6.154;2022-11-20T00:53:27;30.77;;;14.93;;
3341;SDS011;1684;50.748;6.154;2022-11-20T00:55:57;32.40;;;17.77;;
3341;SDS011;1684;50.748;6.154;2022-11-20T00:58:28;30.37;;;16.00;;
3341;SDS011;1684;50.748;6.154;2022-11-20T01:00:59;36.47;;;16.63;;
3341;SDS011;1684;50.748;6.154;2022-11-20T01:03:30;29.23;;;16.70;;
3341;SDS011;1684;50.748;6.154;2022-11-20T01:06:01;33.30;;;17.37;;
3341;SDS011;1684;50.748;6.154;2022-11-20T01:08:30;33.10;;;16.57;;
3341;SDS011;1684;50.748;6.154;2022-11-20T01:10:59;29.43;;;15.00;;
3341;SDS011;1684;50.748;6.154;2022-11-20T01:13:28;30.73;;;15.63;;
3341;SDS011;1684;50.748;6.154;2022-11-20T01:16:06;32.03;;;15.70;;
3341;SDS011;1684;50.748;6.154;2022-11-20T01:18:36;27.17;;;15.97;;
3341;SDS011;1684;50.748;6.154;2022-11-20T01:21:06;30.87;;;15.73;;
3341;SDS011;1684;50.748;6.154;2022-11-20T01:23:35;29.40;;;14.93;;
3341;SDS011;1684;50.748;6.154;2022-11-20T01:26:05;31.37;;;15.83;;
3341;SDS011;1684;50.748;6.154;2022-11-20T01:28:34;33.33;;;16.10;;
3341;SDS011;1684;50.748;6.154;2022-11-20T01:31:10;31.47;;;16.70;;
3341;SDS011;1684;50.748;6.154;2022-11-20T01:33:38;33.50;;;16.17;;
3341;SDS011;1684;50.748;6.154;2022-11-20T01:36:09;30.03;;;16.50;;
3341;SDS011;1684;50.748;6.154;2022-11-20T01:38:37;27.27;;;13.83;;
3341;SDS011;1684;50.748;6.154;2022-11-20T01:41:06;26.70;;;12.70;;
3341;SDS011;1684;50.748;6.154;2022-11-20T01:43:34;32.40;;;16.53;;
3341;SDS011;1684;50.748;6.154;2022-11-20T01:46:08;34.67;;;16.23;;
3341;SDS011;1684;50.748;6.154;2022-11-20T01:48:42;25.10;;;13.43;;
3341;SDS011;1684;50.748;6.154;2022-11-20T01:51:15;34.03;;;15.23;;
3341;SDS011;1684;50.748;6.154;2022-11-20T01:53:48;33.43;;;16.60;;
3341;SDS011;1684;50.748;6.154;2022-11-20T01:56:16;32.93;;;15.60;;
3341;SDS011;1684;50.748;6.154;2022-11-20T01:58:47;34.93;;;16.23;;
3341;SDS011;1684;50.748;6.154;2022-11-20T02:01:16;34.60;;;18.67;;
3341;SDS011;1684;50.748;6.154;2022-11-20T02:03:45;33.83;;;15.47;;
3341;SDS011;1684;50.748;6.154;2022-11-20T02:06:16;37.93;;;17.90;;
3341;SDS011;1684;50.748;6.154;2022-11-20T02:08:46;37.33;;;16.80;;
3341;SDS011;1684;50.748;6.154;2022-11-20T02:11:14;29.60;;;15.47;;
3341;SDS011;1684;50.748;6.154;2022-11-20T02:13:42;34.97;;;18.50;;
3341;SDS011;1684;50.748;6.154;2022-11-20T02:16:10;28.33;;;17.90;;
3341;SDS011;1684;50.748;6.154;2022-11-20T02:18:39;35.60;;;17.87;;
3341;SDS011;1684;50.748;6.154;2022-11-20T02:21:09;35.17;;;17.47;;
3341;SDS011;1684;50.748;6.154;2022-11-20T02:26:12;33.30;;;16.73;;
3341;SDS011;1684;50.748;6.154;2022-11-20T02:28:41;30.57;;;15.80;;
3341;SDS011;1684;50.748;6.154;2022-11-20T02:31:09;34.27;;;16.90;;
3341;SDS011;1684;50.748;6.154;2022-11-20T02:33:37;35.23;;;15.60;;
3341;SDS011;1684;50.748;6.154;2022-11-20T02:36:07;40.23;;;19.67;;
3341;SDS011;1684;50.748;6.154;2022-11-20T02:38:36;30.23;;;17.77;;
3341;SDS011;1684;50.748;6.154;2022-11-20T02:41:04;34.40;;;17.43;;
3341;SDS011;1684;50.748;6.154;2022-11-20T02:43:34;35.63;;;18.07;;
3341;SDS011;1684;50.748;6.154;2022-11-20T02:46:03;35.40;;;17.90;;
3341;SDS011;1684;50.748;6.154;2022-11-20T02:48:31;42.50;;;17.90;;
3341;SDS011;1684;50.748;6.154;2022-11-20T02:50:59;35.97;;;18.40;;
3341;SDS011;1684;50.748;6.154;2022-11-20T02:53:28;39.37;;;19.50;;
3341;SDS011;1684;50.748;6.154;2022-11-20T02:55:56;37.03;;;17.57;;
3341;SDS011;1684;50.748;6.154;2022-11-20T02:58:30;32.50;;;17.20;;
3341;SDS011;1684;50.748;6.154;2022-11-20T03:01:00;26.30;;;14.03;;
3341;SDS011;1684;50.748;6.154;2022-11-20T03:03:28;29.80;;;15.20;;
3341;SDS011;1684;50.748;6.154;2022-11-20T03:05:58;37.07;;;16.53;;
3341;SDS011;1684;50.748;6.154;2022-11-20T03:08:26;32.90;;;15.63;;
3341;SDS011;1684;50.748;6.154;2022-11-20T03:10:54;32.37;;;15.80;;
3341;SDS011;1684;50.748;6.154;2022-11-20T03:13:22;31.00;;;16.13;;
3341;SDS011;1684;50.748;6.154;2022-11-20T03:15:52;40.17;;;18.20;;
3341;SDS011;1684;50.748;6.154;2022-11-20T03:18:22;39.00;;;16.60;;
3341;SDS011;1684;50.748;6.154;2022-11-20T03:20:56;34.30;;;15.90;;
3341;SDS011;1684;50.748;6.154;2022-11-20T03:23:24;34.67;;;16.37;;
3341;SDS011;1684;50.748;6.154;2022-11-20T03:25:52;34.07;;;16.60;;
3341;SDS011;1684;50.748;6.154;2022-11-20T03:28:21;39.03;;;17.03;;
3341;SDS011;1684;50.748;6.154;2022-11-20T03:30:49;33.33;;;15.63;;
3341;SDS011;1684;50.748;6.154;2022-11-20T03:33:17;38.27;;;18.10;;
3341;SDS011;1684;50.748;6.154;2022-11-20T03:35:47;37.13;;;16.57;;
3341;SDS011;1684;50.748;6.154;2022-11-20T03:38:15;27.27;;;14.17;;
3341;SDS011;1684;50.748;6.154;2022-11-20T03:40:43;32.07;;;16.87;;
3341;SDS011;1684;50.748;6.154;2022-11-20T03:43:12;44.13;;;19.40;;
3341;SDS011;1684;50.748;6.154;2022-11-20T03:45:40;29.40;;;14.77;;
3341;SDS011;1684;50.748;6.154;2022-11-20T03:48:08;34.83;;;16.57;;
3341;SDS011;1684;50.748;6.154;2022-11-20T03:50:36;30.43;;;14.47;;
3341;SDS011;1684;50.748;6.154;2022-11-20T03:53:06;27.07;;;12.10;;
3341;SDS011;1684;50.748;6.154;2022-11-20T03:55:34;23.50;;;12.40;;
3341;SDS011;1684;50.748;6.154;2022-11-20T03:58:03;25.23;;;11.90;;
3341;SDS011;1684;50.748;6.154;2022-11-20T04:00:31;25.67;;;13.80;;
3341;SDS011;1684;50.748;6.154;2022-11-20T04:03:00;18.57;;;10.80;;
3341;SDS011;1684;50.748;6.154;2022-11-20T04:05:28;24.77;;;13.00;;
3341;SDS011;1684;50.748;6.154;2022-11-20T04:07:57;25.80;;;13.40;;
3341;SDS011;1684;50.748;6.154;2022-11-20T04:10:26;28.70;;;14.43;;
3341;SDS011;1684;50.748;6.154;2022-11-20T04:12:55;25.70;;;14.10;;
3341;SDS011;1684;50.748;6.154;2022-11-20T04:15:23;25.67;;;13.30;;
3341;SDS011;1684;50.748;6.154;2022-11-20T04:17:51;26.50;;;14.70;;
3341;SDS011;1684;50.748;6.154;2022-11-20T04:20:19;26.90;;;13.57;;
3341;SDS011;1684;50.748;6.154;2022-11-20T04:22:48;27.53;;;15.20;;
3341;SDS011;1684;50.748;6.154;2022-11-20T04:25:16;34.83;;;16.80;;
3341;SDS011;1684;50.748;6.154;2022-11-20T04:27:46;33.73;;;14.10;;
3341;SDS011;1684;50.748;6.154;2022-11-20T04:30:14;28.70;;;14.67;;
3341;SDS011;1684;50.748;6.154;2022-11-20T04:32:42;28.40;;;14.50;;
3341;SDS011;1684;50.748;6.154;2022-11-20T04:35:10;23.07;;;13.10;;
3341;SDS011;1684;50.748;6.154;2022-11-20T04:37:39;24.20;;;12.53;;
3341;SDS011;1684;50.748;6.154;2022-11-20T04:40:07;31.00;;;15.23;;
3341;SDS011;1684;50.748;6.154;2022-11-20T04:42:36;28.30;;;14.73;;
3341;SDS011;1684;50.748;6.154;2022-11-20T04:45:06;34.57;;;16.60;;
3341;SDS011;1684;50.748;6.154;2022-11-20T04:47:34;26.40;;;13.07;;
3341;SDS011;1684;50.748;6.154;2022-11-20T04:50:03;32.23;;;16.03;;
3341;SDS011;1684;50.748;6.154;2022-11-20T04:52:31;31.63;;;17.03;;
3341;SDS011;1684;50.748;6.154;2022-11-20T04:54:59;26.37;;;12.17;;
3341;SDS011;1684;50.748;6.154;2022-11-20T04:57:28;29.30;;;16.73;;
3341;SDS011;1684;50.748;6.154;2022-11-20T04:59:56;29.33;;;15.67;;
3341;SDS011;1684;50.748;6.154;2022-11-20T05:02:26;27.10;;;13.57;;
3341;SDS011;1684;50.748;6.154;2022-11-20T05:04:55;28.00;;;12.97;;
3341;SDS011;1684;50.748;6.154;2022-11-20T05:07:23;35.20;;;16.33;;
3341;SDS011;1684;50.748;6.154;2022-11-20T05:09:52;25.40;;;11.77;;
3341;SDS011;1684;50.748;6.154;2022-11-20T05:12:20;27.83;;;11.70;;
3341;SDS011;1684;50.748;6.154;2022-11-20T05:14:48;33.37;;;15.07;;
3341;SDS011;1684;50.748;6.154;2022-11-20T05:17:17;36.33;;;16.27;;
3341;SDS011;1684;50.748;6.154;2022-11-20T05:19:46;24.87;;;12.87;;
3341;SDS011;1684;50.748;6.154;2022-11-20T05:22:18;27.10;;;15.57;;
3341;SDS011;1684;50.748;6.154;2022-11-20T05:24:46;6.13;;;2.80;;
3341;SDS011;1684;50.748;6.154;2022-11-20T05:27:14;27.40;;;12.37;;
3341;SDS011;1684;50.748;6.154;2022-11-20T05:29:43;19.20;;;10.30;;
3341;SDS011;1684;50.748;6.154;2022-11-20T05:32:11;39.10;;;16.10;;
3341;SDS011;1684;50.748;6.154;2022-11-20T05:34:39;25.70;;;14.03;;
3341;SDS011;1684;50.748;6.154;2022-11-20T05:37:09;29.17;;;14.10;;
3341;SDS011;1684;50.748;6.154;2022-11-20T05:39:37;34.13;;;13.60;;
3341;SDS011;1684;50.748;6.154;2022-11-20T05:42:06;26.33;;;13.40;;
3341;SDS011;1684;50.748;6.154;2022-11-20T05:44:52;44.37;;;19.70;;
3341;SDS011;1684;50.748;6.154;2022-11-20T05:47:21;29.57;;;15.80;;
3341;SDS011;1684;50.748;6.154;2022-11-20T05:49:49;36.20;;;17.40;;
3341;SDS011;1684;50.748;6.154;2022-11-20T05:52:19;30.90;;;16.10;;
3341;SDS011;1684;50.748;6.154;2022-11-20T05:54:47;28.27;;;14.03;;
3341;SDS011;1684;50.748;6.154;2022-11-20T05:57:16;30.57;;;14.40;;
3341;SDS011;1684;50.748;6.154;2022-11-20T05:59:44;44.13;;;21.33;;
3341;SDS011;1684;50.748;6.154;2022-11-20T06:02:12;46.03;;;19.97;;
3341;SDS011;1684;50.748;6.154;2022-11-20T06:04:41;27.20;;;14.60;;
3341;SDS011;1684;50.748;6.154;2022-11-20T06:07:09;43.03;;;21.87;;
3341;SDS011;1684;50.748;6.154;2022-11-20T06:09:39;39.10;;;19.00;;
3341;SDS011;1684;50.748;6.154;2022-11-20T06:12:08;32.10;;;16.70;;
3341;SDS011;1684;50.748;6.154;2022-11-20T06:14:37;35.37;;;19.97;;
3341;SDS011;1684;50.748;6.154;2022-11-20T06:17:05;39.17;;;19.03;;
3341;SDS011;1684;50.748;6.154;2022-11-20T06:19:33;26.97;;;14.13;;
3341;SDS011;1684;50.748;6.154;2022-11-20T06:22:02;33.53;;;15.70;;
3341;SDS011;1684;50.748;6.154;2022-11-20T06:24:30;28.90;;;15.03;;
3341;SDS011;1684;50.748;6.154;2022-11-20T06:27:01;25.40;;;13.23;;
3341;SDS011;1684;50.748;6.154;2022-11-20T06:29:29;25.13;;;14.40;;
3341;SDS011;1684;50.748;6.154;2022-11-20T06:31:59;24.27;;;14.73;;
3341;SDS011;1684;50.748;6.154;2022-11-20T06:34:27;27.77;;;14.63;;
3341;SDS011;1684;50.748;6.154;2022-11-20T06:36:56;25.23;;;14.63;;
3341;SDS011;1684;50.748;6.154;2022-11-20T06:39:25;27.07;;;14.60;;
3341;SDS011;1684;50.748;6.154;2022-11-20T06:41:53;25.93;;;13.93;;
3341;SDS011;1684;50.748;6.154;2022-11-20T06:44:25;25.00;;;13.87;;
3341;SDS011;1684;50.748;6.154;2022-11-20T06:46:54;27.30;;;13.17;;
3341;SDS011;1684;50.748;6.154;2022-11-20T06:49:22;21.93;;;12.10;;
3341;SDS011;1684;50.748;6.154;2022-11-20T06:51:51;26.37;;;12.40;;
3341;SDS011;1684;50.748;6.154;2022-11-20T06:54:19;25.43;;;13.93;;
3341;SDS011;1684;50.748;6.154;2022-11-20T06:56:48;26.23;;;14.20;;
3341;SDS011;1684;50.748;6.154;2022-11-20T06:59:16;27.87;;;15.20;;
3341;SDS011;1684;50.748;6.154;2022-11-20T07:01:47;26.63;;;13.13;;
3341;SDS011;1684;50.748;6.154;2022-11-20T07:04:15;24.47;;;13.37;;
3341;SDS011;1684;50.748;6.154;2022-11-20T07:06:44;26.90;;;14.67;;
3341;SDS011;1684;50.748;6.154;2022-11-20T07:09:12;27.87;;;14.70;;
3341;SDS011;1684;50.748;6.154;2022-11-20T07:11:40;22.40;;;13.27;;
3341;SDS011;1684;50.748;6.154;2022-11-20T07:14:09;24.30;;;13.00;;
3341;SDS011;1684;50.748;6.154;2022-11-20T07:16:37;22.23;;;12.50;;
3341;SDS011;1684;50.748;6.154;2022-11-20T07:19:06;21.83;;;11.97;;
3341;SDS011;1684;50.748;6.154;2022-11-20T07:21:35;26.20;;;13.87;;
3341;SDS011;1684;50.748;6.154;2022-11-20T07:24:03;23.70;;;13.60;;
3341;SDS011;1684;50.748;6.154;2022-11-20T07:26:32;26.13;;;13.90;;
3341;SDS011;1684;50.748;6.154;2022-11-20T07:29:00;29.67;;;13.50;;
3341;SDS011;1684;50.748;6.154;2022-11-20T07:31:28;25.10;;;12.23;;
3341;SDS011;1684;50.748;6.154;2022-11-20T07:33:57;26.07;;;14.07;;
3341;SDS011;1684;50.748;6.154;2022-11-20T07:36:26;25.00;;;13.53;;
3341;SDS011;1684;50.748;6.154;2022-11-20T07:38:56;25.80;;;16.10;;
3341;SDS011;1684;50.748;6.154;2022-11-20T07:41:25;24.43;;;14.23;;
3341;SDS011;1684;50.748;6.154;2022-11-20T07:43:55;22.23;;;12.67;;
3341;SDS011;1684;50.748;6.154;2022-11-20T07:46:24;22.23;;;12.93;;
3341;SDS011;1684;50.748;6.154;2022-11-20T07:48:53;23.00;;;13.20;;
3341;SDS011;1684;50.748;6.154;2022-11-20T07:51:21;24.83;;;13.30;;
3341;SDS011;1684;50.748;6.154;2022-11-20T07:53:51;25.73;;;13.33;;
3341;SDS011;1684;50.748;6.154;2022-11-20T07:56:20;28.20;;;14.07;;
3341;SDS011;1684;50.748;6.154;2022-11-20T07:58:48;25.00;;;14.03;;
3341;SDS011;1684;50.748;6.154;2022-11-20T08:01:16;27.63;;;14.60;;
3341;SDS011;1684;50.748;6.154;2022-11-20T08:03:45;30.97;;;15.03;;
3341;SDS011;1684;50.748;6.154;2022-11-20T08:06:13;30.50;;;14.83;;
3341;SDS011;1684;50.748;6.154;2022-11-20T08:08:41;28.53;;;14.00;;
3341;SDS011;1684;50.748;6.154;2022-11-20T08:11:11;28.03;;;15.50;;
3341;SDS011;1684;50.748;6.154;2022-11-20T08:13:58;27.93;;;14.00;;
3341;SDS011;1684;50.748;6.154;2022-11-20T08:16:42;25.77;;;14.90;;
3341;SDS011;1684;50.748;6.154;2022-11-20T08:19:11;30.17;;;14.37;;
3341;SDS011;1684;50.748;6.154;2022-11-20T08:21:39;25.10;;;13.90;;
3341;SDS011;1684;50.748;6.154;2022-11-20T08:24:08;23.60;;;13.03;;
3341;SDS011;1684;50.748;6.154;2022-11-20T08:26:38;23.83;;;13.87;;
3341;SDS011;1684;50.748;6.154;2022-11-20T08:29:06;35.17;;;16.40;;
3341;SDS011;1684;50.748;6.154;2022-11-20T08:31:35;29.87;;;15.10;;
3341;SDS011;1684;50.748;6.154;2022-11-20T08:34:03;33.87;;;17.07;;
3341;SDS011;1684;50.748;6.154;2022-11-20T08:36:35;33.00;;;16.87;;
3341;SDS011;1684;50.748;6.154;2022-11-20T08:39:04;39.37;;;19.17;;
3341;SDS011;1684;50.748;6.154;2022-11-20T08:41:33;44.20;;;17.20;;
3341;SDS011;1684;50.748;6.154;2022-11-20T08:44:05;30.57;;;17.27;;
3341;SDS011;1684;50.748;6.154;2022-11-20T08:46:34;41.60;;;18.77;;
3341;SDS011;1684;50.748;6.154;2022-11-20T08:49:03;46.80;;;19.77;;
3341;SDS011;1684;50.748;6.154;2022-11-20T08:51:32;47.13;;;21.57;;
3341;SDS011;1684;50.748;6.154;2022-11-20T08:54:00;53.10;;;21.93;;
3341;SDS011;1684;50.748;6.154;2022-11-20T08:56:28;46.30;;;22.00;;
3341;SDS011;1684;50.748;6.154;2022-11-20T08:58:58;60.03;;;22.40;;
3341;SDS011;1684;50.748;6.154;2022-11-20T09:01:48;55.20;;;22.23;;
3341;SDS011;1684;50.748;6.154;2022-11-20T09:04:16;53.53;;;22.33;;
3341;SDS011;1684;50.748;6.154;2022-11-20T09:06:44;63.00;;;22.30;;
3341;SDS011;1684;50.748;6.154;2022-11-20T09:09:17;50.07;;;20.30;;
3341;SDS011;1684;50.748;6.154;2022-11-20T09:11:46;58.90;;;24.57;;
3341;SDS011;1684;50.748;6.154;2022-11-20T09:14:16;46.40;;;21.07;;
3341;SDS011;1684;50.748;6.154;2022-11-20T09:16:45;49.33;;;22.63;;
3341;SDS011;1684;50.748;6.154;2022-11-20T09:19:15;55.47;;;22.47;;
3341;SDS011;1684;50.748;6.154;2022-11-20T09:22:01;47.33;;;19.80;;
3341;SDS011;1684;50.748;6.154;2022-11-20T09:24:29;49.13;;;21.00;;
3341;SDS011;1684;50.748;6.154;2022-11-20T09:26:57;54.00;;;25.77;;
3341;SDS011;1684;50.748;6.154;2022-11-20T09:29:26;54.43;;;22.27;;
3341;SDS011;1684;50.748;6.154;2022-11-20T09:31:54;49.23;;;19.67;;
3341;SDS011;1684;50.748;6.154;2022-11-20T09:34:24;49.60;;;22.20;;
3341;SDS011;1684;50.748;6.154;2022-11-20T09:36:54;47.00;;;20.13;;
3341;SDS011;1684;50.748;6.154;2022-11-20T09:39:25;42.93;;;21.83;;
3341;SDS011;1684;50.748;6.154;2022-11-20T09:41:56;51.80;;;22.93;;
3341;SDS011;1684;50.748;6.154;2022-11-20T09:44:40;48.60;;;20.97;;
3341;SDS011;1684;50.748;6.154;2022-11-20T09:47:12;49.83;;;23.30;;
3341;SDS011;1684;50.748;6.154;2022-11-20T09:49:51;51.33;;;23.37;;
3341;SDS011;1684;50.748;6.154;2022-11-20T09:52:28;50.23;;;20.33;;
3341;SDS011;1684;50.748;6.154;2022-11-20T09:55:00;44.33;;;20.50;;
3341;SDS011;1684;50.748;6.154;2022-11-20T09:57:31;55.77;;;23.37;;
3341;SDS011;1684;50.748;6.154;2022-11-20T10:00:03;48.80;;;23.57;;
3341;SDS011;1684;50.748;6.154;2022-11-20T10:02:35;50.87;;;21.90;;
3341;SDS011;1684;50.748;6.154;2022-11-20T10:05:09;44.53;;;19.97;;
3341;SDS011;1684;50.748;6.154;2022-11-20T10:07:41;54.30;;;22.13;;
3341;SDS011;1684;50.748;6.154;2022-11-20T10:10:14;49.67;;;22.57;;
3341;SDS011;1684;50.748;6.154;2022-11-20T10:12:48;47.40;;;20.27;;
3341;SDS011;1684;50.748;6.154;2022-11-20T10:15:25;47.67;;;19.60;;
3341;SDS011;1684;50.748;6.154;2022-11-20T10:18:00;45.33;;;20.97;;
3341;SDS011;1684;50.748;6.154;2022-11-20T10:20:32;41.47;;;18.40;;
3341;SDS011;1684;50.748;6.154;2022-11-20T10:23:12;44.93;;;21.03;;
3341;SDS011;1684;50.748;6.154;2022-11-20T10:25:52;39.50;;;18.20;;
3341;SDS011;1684;50.748;6.154;2022-11-20T10:28:28;44.60;;;19.90;;
3341;SDS011;1684;50.748;6.154;2022-11-20T10:31:00;43.77;;;17.97;;
3341;SDS011;1684;50.748;6.154;2022-11-20T10:33:29;48.43;;;20.47;;
3341;SDS011;1684;50.748;6.154;2022-11-20T10:36:22;45.77;;;23.70;;
3341;SDS011;1684;50.748;6.154;2022-11-20T10:38:54;43.40;;;18.93;;
3341;SDS011;1684;50.748;6.154;2022-11-20T10:41:25;44.73;;;19.47;;
3341;SDS011;1684;50.748;6.154;2022-11-20T10:44:02;37.83;;;16.53;;
3341;SDS011;1684;50.748;6.154;2022-11-20T10:46:34;50.30;;;19.63;;
3341;SDS011;1684;50.748;6.154;2022-11-20T10:49:04;45.30;;;18.00;;
3341;SDS011;1684;50.748;6.154;2022-11-20T10:51:37;39.73;;;18.33;;
3341;SDS011;1684;50.748;6.154;2022-11-20T10:54:11;37.33;;;18.60;;
3341;SDS011;1684;50.748;6.154;2022-11-20T10:56:40;38.30;;;16.20;;
3341;SDS011;1684;50.748;6.154;2022-11-20T10:59:24;31.73;;;15.57;;
3341;SDS011;1684;50.748;6.154;2022-11-20T11:01:54;38.20;;;18.57;;
3341;SDS011;1684;50.748;6.154;2022-11-20T11:04:30;36.07;;;17.97;;
3341;SDS011;1684;50.748;6.154;2022-11-20T11:07:04;34.53;;;17.40;;
3341;SDS011;1684;50.748;6.154;2022-11-20T11:09:35;38.07;;;16.73;;
3341;SDS011;1684;50.748;6.154;2022-11-20T11:12:06;32.30;;;15.50;;
3341;SDS011;1684;50.748;6.154;2022-11-20T11:14:45;35.37;;;17.37;;
3341;SDS011;1684;50.748;6.154;2022-11-20T11:17:21;29.20;;;15.20;;
3341;SDS011;1684;50.748;6.154;2022-11-20T11:19:59;30.57;;;15.27;;
3341;SDS011;1684;50.748;6.154;2022-11-20T11:22:29;31.27;;;14.90;;
3341;SDS011;1684;50.748;6.154;2022-11-20T11:24:59;32.57;;;14.73;;
3341;SDS011;1684;50.748;6.154;2022-11-20T11:27:28;32.77;;;16.10;;
3341;SDS011;1684;50.748;6.154;2022-11-20T11:30:11;36.23;;;17.60;;
3341;SDS011;1684;50.748;6.154;2022-11-20T11:32:41;32.83;;;15.17;;
3341;SDS011;1684;50.748;6.154;2022-11-20T11:35:19;34.50;;;17.50;;
3341;SDS011;1684;50.748;6.154;2022-11-20T11:37:49;28.50;;;13.37;;
3341;SDS011;1684;50.748;6.154;2022-11-20T11:40:20;34.10;;;14.93;;
3341;SDS011;1684;50.748;6.154;2022-11-20T11:42:52;28.37;;;13.60;;
3341;SDS011;1684;50.748;6.154;2022-11-20T11:45:22;30.40;;;14.07;;
3341;SDS011;1684;50.748;6.154;2022-11-20T11:47:49;29.97;;;14.20;;
3341;SDS011;1684;50.748;6.154;2022-11-20T11:50:20;28.63;;;15.00;;
3341;SDS011;1684;50.748;6.154;2022-11-20T11:52:54;35.23;;;14.90;;
3341;SDS011;1684;50.748;6.154;2022-11-20T11:55:27;28.90;;;12.97;;
3341;SDS011;1684;50.748;6.154;2022-11-20T12:00:46;22.07;;;13.40;;
3341;SDS011;1684;50.748;6.154;2022-11-20T12:03:19;22.50;;;11.90;;
3341;SDS011;1684;50.748;6.154;2022-11-20T12:05:50;25.00;;;12.50;;
3341;SDS011;1684;50.748;6.154;2022-11-20T12:08:25;26.50;;;12.40;;
3341;SDS011;1684;50.748;6.154;2022-11-20T12:10:56;20.67;;;11.33;;
3341;SDS011;1684;50.748;6.154;2022-11-20T12:13:30;30.93;;;12.73;;
3341;SDS011;1684;50.748;6.154;2022-11-20T12:16:03;23.17;;;12.13;;
3341;SDS011;1684;50.748;6.154;2022-11-20T12:18:31;20.47;;;11.10;;
3341;SDS011;1684;50.748;6.154;2022-11-20T12:21:03;21.60;;;12.63;;
3341;SDS011;1684;50.748;6.154;2022-11-20T12:23:37;21.10;;;11.13;;
3341;SDS011;1684;50.748;6.154;2022-11-20T12:26:10;23.60;;;11.17;;
3341;SDS011;1684;50.748;6.154;2022-11-20T12:28:50;16.27;;;9.10;;
3341;SDS011;1684;50.748;6.154;2022-11-20T12:31:27;17.83;;;9.13;;
3341;SDS011;1684;50.748;6.154;2022-11-20T12:34:06;18.73;;;9.20;;
3341;SDS011;1684;50.748;6.154;2022-11-20T12:36:39;18.23;;;10.63;;
3341;SDS011;1684;50.748;6.154;2022-11-20T12:45:12;19.43;;;8.50;;
3341;SDS011;1684;50.748;6.154;2022-11-20T12:47:49;16.13;;;8.87;;
3341;SDS011;1684;50.748;6.154;2022-11-20T12:50:22;20.83;;;10.50;;
3341;SDS011;1684;50.748;6.154;2022-11-20T12:52:53;12.10;;;7.70;;
3341;SDS011;1684;50.748;6.154;2022-11-20T12:55:25;20.00;;;7.57;;
3341;SDS011;1684;50.748;6.154;2022-11-20T12:57:58;17.83;;;7.37;;
3341;SDS011;1684;50.748;6.154;2022-11-20T13:00:30;11.20;;;6.67;;
3341;SDS011;1684;50.748;6.154;2022-11-20T13:03:09;14.30;;;6.77;;
3341;SDS011;1684;50.748;6.154;2022-11-20T13:05:45;13.60;;;6.97;;
3341;SDS011;1684;50.748;6.154;2022-11-20T13:08:18;12.33;;;6.63;;
3341;SDS011;1684;50.748;6.154;2022-11-20T13:10:49;12.33;;;6.07;;
3341;SDS011;1684;50.748;6.154;2022-11-20T13:13:22;10.83;;;5.60;;
3341;SDS011;1684;50.748;6.154;2022-11-20T13:15:55;15.90;;;4.83;;
3341;SDS011;1684;50.748;6.154;2022-11-20T13:18:24;8.43;;;5.00;;
3341;SDS011;1684;50.748;6.154;2022-11-20T13:20:53;10.90;;;6.17;;
3341;SDS011;1684;50.748;6.154;2022-11-20T13:23:24;10.30;;;5.20;;
3341;SDS011;1684;50.748;6.154;2022-11-20T13:26:03;7.70;;;5.30;;
3341;SDS011;1684;50.748;6.154;2022-11-20T13:28:32;6.53;;;3.93;;
3341;SDS011;1684;50.748;6.154;2022-11-20T13:31:02;6.67;;;4.63;;
3341;SDS011;1684;50.748;6.154;2022-11-20T13:33:31;10.27;;;4.60;;
3341;SDS011;1684;50.748;6.154;2022-11-20T13:36:00;8.03;;;4.33;;
3341;SDS011;1684;50.748;6.154;2022-11-20T13:38:46;7.20;;;4.10;;
3341;SDS011;1684;50.748;6.154;2022-11-20T13:41:22;10.23;;;5.47;;
3341;SDS011;1684;50.748;6.154;2022-11-20T13:44:05;7.00;;;3.90;;
3341;SDS011;1684;50.748;6.154;2022-11-20T13:46:37;9.67;;;4.80;;
3341;SDS011;1684;50.748;6.154;2022-11-20T13:49:06;6.50;;;4.17;;
3341;SDS011;1684;50.748;6.154;2022-11-20T13:51:37;9.83;;;3.97;;
3341;SDS011;1684;50.748;6.154;2022-11-20T13:54:15;10.13;;;4.30;;
3341;SDS011;1684;50.748;6.154;2022-11-20T13:56:52;9.30;;;4.33;;
3341;SDS011;1684;50.748;6.154;2022-11-20T13:59:32;11.30;;;4.87;;
3341;SDS011;1684;50.748;6.154;2022-11-20T14:02:05;3.83;;;2.50;;
3341;SDS011;1684;50.748;6.154;2022-11-20T14:04:38;5.20;;;2.47;;
3341;SDS011;1684;50.748;6.154;2022-11-20T14:07:10;4.70;;;2.30;;
3341;SDS011;1684;50.748;6.154;2022-11-20T14:09:38;6.50;;;2.43;;
3341;SDS011;1684;50.748;6.154;2022-11-20T14:12:12;9.20;;;2.10;;
3341;SDS011;1684;50.748;6.154;2022-11-20T14:14:47;4.27;;;1.93;;
3341;SDS011;1684;50.748;6.154;2022-11-20T14:17:19;9.20;;;2.50;;
3341;SDS011;1684;50.748;6.154;2022-11-20T14:19:48;3.47;;;1.83;;
3341;SDS011;1684;50.748;6.154;2022-11-20T14:22:18;2.93;;;1.40;;
3341;SDS011;1684;50.748;6.154;2022-11-20T14:24:47;5.07;;;2.10;;
3341;SDS011;1684;50.748;6.154;2022-11-20T14:27:16;4.87;;;1.93;;
3341;SDS011;1684;50.748;6.154;2022-11-20T14:29:51;3.73;;;2.20;;
3341;SDS011;1684;50.748;6.154;2022-11-20T14:32:22;6.13;;;2.40;;
3341;SDS011;1684;50.748;6.154;2022-11-20T14:35:02;4.03;;;2.50;;
3341;SDS011;1684;50.748;6.154;2022-11-20T14:37:32;6.10;;;1.70;;
3341;SDS011;1684;50.748;6.154;2022-11-20T14:40:01;5.00;;;2.67;;
3341;SDS011;1684;50.748;6.154;2022-11-20T14:42:30;3.97;;;2.40;;
3341;SDS011;1684;50.748;6.154;2022-11-20T14:44:58;5.60;;;2.43;;
3341;SDS011;1684;50.748;6.154;2022-11-20T14:47:29;4.30;;;2.23;;
3341;SDS011;1684;50.748;6.154;2022-11-20T14:49:59;6.33;;;2.07;;
3341;SDS011;1684;50.748;6.154;2022-11-20T14:52:35;7.37;;;3.00;;
3341;SDS011;1684;50.748;6.154;2022-11-20T14:55:03;4.57;;;2.67;;
3341;SDS011;1684;50.748;6.154;2022-11-20T14:57:32;6.70;;;3.00;;
3341;SDS011;1684;50.748;6.154;2022-11-20T15:00:17;4.00;;;2.50;;
3341;SDS011;1684;50.748;6.154;2022-11-20T15:02:48;9.93;;;2.67;;
3341;SDS011;1684;50.748;6.154;2022-11-20T15:05:17;5.30;;;3.00;;
3341;SDS011;1684;50.748;6.154;2022-11-20T15:07:47;5.57;;;2.70;;
3341;SDS011;1684;50.748;6.154;2022-11-20T15:10:20;5.07;;;3.10;;
3341;SDS011;1684;50.748;6.154;2022-11-20T15:12:50;5.30;;;3.37;;
3341;SDS011;1684;50.748;6.154;2022-11-20T15:15:21;7.70;;;2.90;;
3341;SDS011;1684;50.748;6.154;2022-11-20T15:17:51;5.60;;;3.53;;
3341;SDS011;1684;50.748;6.154;2022-11-20T15:20:20;5.47;;;3.40;;
3341;SDS011;1684;50.748;6.154;2022-11-20T15:22:49;3.57;;;2.40;;
3341;SDS011;1684;50.748;6.154;2022-11-20T15:25:18;5.67;;;2.63;;